createdAt,value
2022-11-05T00:01:34.777Z,100599.00
2022-11-05T00:06:58.882Z,100595.47
2022-11-05T00:12:18.241Z,100597.38
2022-11-05T00:17:21.307Z,100596.38
2022-11-05T00:22:42.791Z,100599.22
2022-11-05T00:27:43.134Z,100596.56
2022-11-05T00:32:45.231Z,100592.81
2022-11-05T00:37:48.697Z,100594.31
2022-11-05T00:43:14.555Z,100607.25
2022-11-05T00:48:36.586Z,100598.94
2022-11-05T00:53:36.011Z,100599.59
2022-11-05T00:58:35.868Z,100599.91
2022-11-05T01:03:38.821Z,100590.53
2022-11-05T01:08:38.362Z,100593.56
2022-11-05T01:13:39.631Z,100593.09
2022-11-05T01:18:39.531Z,100584.84
2022-11-05T01:23:41.569Z,100579.81
2022-11-05T01:28:40.639Z,100573.06
2022-11-05T01:33:41.767Z,100567.44
2022-11-05T01:38:51.190Z,100569.25
2022-11-05T01:43:55.438Z,100565.75
2022-11-05T01:49:00.075Z,100558.16
2022-11-05T01:54:04.336Z,100549.41
2022-11-05T01:59:23.271Z,100535.78
2022-11-05T02:04:28.362Z,100542.81
2022-11-05T02:09:27.596Z,100542.19
2022-11-05T02:14:27.536Z,100546.66
2022-11-05T02:19:36.150Z,100554.53
2022-11-05T02:24:56.267Z,100555.16
2022-11-05T02:30:00.842Z,100549.72
2022-11-05T02:35:07.894Z,100554.47
2022-11-05T02:40:11.700Z,100544.03
2022-11-05T02:45:16.475Z,100550.50
2022-11-05T02:50:19.317Z,100554.56
2022-11-05T02:55:21.571Z,100553.47
2022-11-05T03:00:35.422Z,100547.91
2022-11-05T03:05:39.477Z,100555.78
2022-11-05T03:10:41.848Z,100561.09
2022-11-05T03:15:51.461Z,100561.72
2022-11-05T03:20:52.554Z,100559.47
2022-11-05T03:25:52.823Z,100569.47
2022-11-05T03:30:55.547Z,100565.19
2022-11-05T03:35:57.213Z,100569.84
2022-11-05T03:40:58.035Z,100573.94
2022-11-05T03:46:29.298Z,100572.94
2022-11-05T03:51:58.719Z,100575.31
2022-11-05T03:56:59.581Z,100565.28
2022-11-05T04:02:00.789Z,100563.84
2022-11-05T04:07:18.273Z,100553.81
2022-11-05T04:12:45.604Z,100554.00
2022-11-05T04:17:48.378Z,100553.81
2022-11-05T04:23:13.974Z,100549.66
2022-11-05T04:28:14.484Z,100549.84
2022-11-05T04:33:15.463Z,100547.31
2022-11-05T04:38:24.902Z,100551.91
2022-11-05T04:43:24.026Z,100555.34
2022-11-05T04:48:22.281Z,100550.50
2022-11-05T04:53:21.674Z,100552.91
2022-11-05T04:58:21.134Z,100562.63
2022-11-05T05:03:23.228Z,100571.50
2022-11-05T05:08:20.512Z,100578.66
2022-11-05T05:13:18.689Z,100583.88
2022-11-05T05:18:17.003Z,100583.41
2022-11-05T05:23:15.253Z,100587.41
2022-11-05T05:28:14.367Z,100582.72
2022-11-05T05:33:24.460Z,100595.34
2022-11-05T05:38:22.687Z,100597.06
2022-11-05T05:43:23.646Z,100603.78
2022-11-05T05:48:26.723Z,100616.16
2022-11-05T05:53:25.961Z,100624.84
2022-11-05T05:58:23.719Z,100625.94
2022-11-05T06:03:23.008Z,100631.97
2022-11-05T06:08:23.447Z,100638.38
2022-11-05T06:13:22.098Z,100648.25
2022-11-05T06:18:21.053Z,100641.03
2022-11-05T06:23:26.343Z,100650.00
2022-11-05T06:28:26.485Z,100644.41
2022-11-05T06:33:24.910Z,100659.50
2022-11-05T06:38:26.345Z,100662.91
2022-11-05T06:43:26.261Z,100658.22
2022-11-05T06:48:25.779Z,100664.28
2022-11-05T06:53:26.229Z,100658.94
2022-11-05T06:58:25.488Z,100657.59
2022-11-05T07:03:26.423Z,100661.84
2022-11-05T07:08:28.746Z,100663.75
2022-11-05T07:13:27.440Z,100662.56
2022-11-05T07:18:28.739Z,100659.75
2022-11-05T07:23:26.672Z,100659.41
2022-11-05T07:28:26.980Z,100658.38
2022-11-05T07:33:29.168Z,100659.78
2022-11-05T07:38:32.467Z,100656.69
2022-11-05T07:43:32.060Z,100652.47
2022-11-05T07:48:32.722Z,100645.44
2022-11-05T07:53:31.995Z,100641.19
2022-11-05T07:58:37.148Z,100638.13
2022-11-05T08:03:36.679Z,100638.47
2022-11-05T08:08:34.639Z,100631.56
2022-11-05T08:13:35.986Z,100634.09
2022-11-05T08:18:34.291Z,100627.44
2022-11-05T08:23:34.179Z,100625.47
2022-11-05T08:28:35.287Z,100627.97
2022-11-05T08:33:38.389Z,100621.28
2022-11-05T08:38:39.320Z,100621.38
2022-11-05T08:43:40.773Z,100614.28
2022-11-05T08:48:41.255Z,100617.34
2022-11-05T08:53:42.723Z,100610.91
2022-11-05T08:58:44.753Z,100608.13
2022-11-05T09:03:47.498Z,100606.13
2022-11-05T09:08:45.122Z,100594.78
2022-11-05T09:13:46.542Z,100594.81
2022-11-05T09:18:45.446Z,100600.47
2022-11-05T09:23:45.913Z,100602.47
2022-11-05T09:28:44.293Z,100601.69
2022-11-05T09:33:42.135Z,100588.06
2022-11-05T09:38:44.040Z,100594.69
2022-11-05T09:43:43.417Z,100589.44
2022-11-05T09:48:41.549Z,100586.41
2022-11-05T09:53:40.459Z,100578.91
2022-11-05T09:58:41.291Z,100580.50
2022-11-05T10:03:45.426Z,100572.50
2022-11-05T10:08:43.818Z,100570.78
2022-11-05T10:14:00.904Z,100580.69
2022-11-05T10:19:04.661Z,100579.94
2022-11-05T10:24:14.219Z,100585.72
2022-11-05T10:29:14.190Z,100584.72
2022-11-05T10:34:13.807Z,100574.16
2022-11-05T10:39:16.278Z,100572.81
2022-11-05T10:44:20.110Z,100571.13
2022-11-05T10:49:39.115Z,100558.56
2022-11-05T10:54:39.655Z,100552.47
2022-11-05T10:59:40.278Z,100556.88
2022-11-05T11:04:38.503Z,100559.25
2022-11-05T11:09:36.654Z,100547.84
2022-11-05T11:14:37.627Z,100558.72
2022-11-05T11:19:38.798Z,100545.09
2022-11-05T11:24:40.252Z,100540.22
2022-11-05T11:29:49.141Z,100531.28
2022-11-05T11:34:58.898Z,100523.75
2022-11-05T11:40:18.180Z,100516.25
2022-11-05T11:45:20.058Z,100527.22
2022-11-05T11:50:36.667Z,100516.06
2022-11-05T11:55:40.898Z,100510.66
2022-11-05T12:00:45.128Z,100530.25
2022-11-05T12:05:48.399Z,100523.78
2022-11-05T12:10:53.527Z,100529.97
2022-11-05T12:16:05.132Z,100524.91
2022-11-05T12:21:07.871Z,100522.63
2022-11-05T12:26:08.891Z,100526.56
2022-11-05T12:31:48.556Z,100516.06
2022-11-05T12:36:46.542Z,100519.63
2022-11-05T12:41:44.269Z,100508.13
2022-11-05T12:46:45.430Z,100510.53
2022-11-05T12:51:56.668Z,100509.81
2022-11-05T12:57:01.018Z,100516.84
2022-11-05T13:02:22.263Z,100515.22
2022-11-05T13:07:23.785Z,100521.91
2022-11-05T13:12:23.335Z,100520.19
2022-11-05T13:17:28.786Z,100519.81
2022-11-05T13:22:29.152Z,100516.28
2022-11-05T13:27:28.626Z,100521.53
2022-11-05T13:32:33.502Z,100520.38
2022-11-05T13:37:54.830Z,100517.28
2022-11-05T13:43:10.689Z,100521.44
2022-11-05T13:48:29.044Z,100524.28
2022-11-05T13:53:27.646Z,100533.00
2022-11-05T13:58:46.896Z,100524.78
2022-11-05T14:03:56.779Z,100536.31
2022-11-05T14:09:01.360Z,100542.88
2022-11-05T14:14:03.418Z,100535.28
2022-11-05T14:19:25.660Z,100536.44
2022-11-05T14:24:29.770Z,100550.16
2022-11-05T14:29:39.019Z,100542.56
2022-11-05T14:34:41.386Z,100546.66
2022-11-05T14:39:40.090Z,100541.38
2022-11-05T14:44:41.457Z,100545.84
2022-11-05T14:49:45.677Z,100535.06
2022-11-05T14:54:45.514Z,100534.69
2022-11-05T14:59:54.374Z,100535.25
2022-11-05T15:05:16.455Z,100539.63
2022-11-05T15:10:16.489Z,100544.63
2022-11-05T15:15:30.373Z,100543.94
2022-11-05T15:20:38.718Z,100548.19
2022-11-05T15:25:45.839Z,100549.56
2022-11-05T15:31:06.418Z,100549.97
2022-11-05T15:36:11.425Z,100554.34
2022-11-05T15:41:23.314Z,100563.31
2022-11-05T15:46:23.102Z,100572.78
2022-11-05T15:51:23.038Z,100581.03
2022-11-05T15:56:26.265Z,100592.69
2022-11-05T16:01:28.234Z,100598.66
2022-11-05T16:06:29.958Z,100603.06
2022-11-05T16:11:35.850Z,100619.38
2022-11-05T16:16:34.262Z,100632.94
2022-11-05T16:21:35.583Z,100637.16
2022-11-05T16:31:59.837Z,100654.13
2022-11-05T16:36:59.747Z,100653.41
2022-11-05T16:42:00.405Z,100662.22
2022-11-05T16:47:00.529Z,100660.66
2022-11-05T16:52:04.193Z,100672.72
2022-11-05T16:57:02.179Z,100667.44
2022-11-05T17:02:01.883Z,100671.41
2022-11-05T17:07:11.748Z,100671.06
2022-11-05T17:12:12.648Z,100676.16
2022-11-05T17:17:14.525Z,100674.41
2022-11-05T17:22:15.632Z,100681.47
2022-11-05T17:27:13.860Z,100683.53
2022-11-05T17:32:13.325Z,100685.03
2022-11-05T17:37:12.323Z,100687.91
2022-11-05T17:42:13.237Z,100690.56
2022-11-05T17:47:12.576Z,100696.88
2022-11-05T17:52:19.006Z,100695.19
2022-11-05T17:57:18.323Z,100706.56
2022-11-05T18:02:17.672Z,100705.75
2022-11-05T18:07:17.101Z,100715.09
2022-11-05T18:12:15.519Z,100722.78
2022-11-05T18:17:14.689Z,100718.34
2022-11-05T18:22:17.189Z,100718.13
2022-11-05T18:27:16.754Z,100727.44
2022-11-05T18:32:16.465Z,100733.06
2022-11-05T18:37:20.553Z,100742.59
2022-11-05T18:42:21.134Z,100742.84
2022-11-05T18:47:23.519Z,100746.81
2022-11-05T18:52:38.035Z,100746.97
2022-11-05T18:57:53.342Z,100763.16
2022-11-05T19:08:26.470Z,100768.28
2022-11-05T19:13:24.581Z,100771.41
2022-11-05T19:18:25.389Z,100768.69
2022-11-05T19:23:34.101Z,100768.31
2022-11-05T19:28:36.909Z,100773.78
2022-11-05T19:33:35.877Z,100776.31
2022-11-05T19:38:38.287Z,100781.53
2022-11-05T19:43:37.612Z,100770.06
2022-11-05T19:48:41.086Z,100774.50
2022-11-05T19:53:53.155Z,100783.25
2022-11-05T19:58:53.282Z,100781.38
2022-11-05T20:03:53.336Z,100785.69
2022-11-05T20:09:19.891Z,100790.38
2022-11-05T20:14:14.453Z,100797.13
2022-11-05T20:19:47.863Z,100796.53
2022-11-05T20:24:46.292Z,100799.50
2022-11-05T20:29:44.809Z,100798.13
2022-11-05T20:34:44.926Z,100805.09
2022-11-05T20:39:44.165Z,100804.00
2022-11-05T20:44:45.868Z,100813.75
2022-11-05T20:49:45.207Z,100805.09
2022-11-05T20:54:44.510Z,100801.47
2022-11-05T20:59:45.834Z,100803.06
2022-11-05T21:04:43.872Z,100804.91
2022-11-05T21:09:42.483Z,100815.78
2022-11-05T21:14:41.629Z,100819.84
2022-11-05T21:19:43.442Z,100819.41
2022-11-05T21:24:44.318Z,100819.78
2022-11-05T21:29:42.974Z,100818.59
2022-11-05T21:34:41.085Z,100820.94
2022-11-05T21:39:40.863Z,100822.53
2022-11-05T21:44:38.687Z,100827.91
2022-11-05T21:49:37.546Z,100822.44
2022-11-05T21:54:56.987Z,100828.53
2022-11-05T22:00:00.623Z,100834.81
2022-11-05T22:05:00.315Z,100837.53
2022-11-05T22:10:00.701Z,100845.28
2022-11-05T22:14:59.710Z,100833.44
2022-11-05T22:20:03.199Z,100844.59
2022-11-05T22:25:01.859Z,100850.59
2022-11-05T22:30:03.481Z,100858.34
2022-11-05T22:35:01.801Z,100843.47
2022-11-05T22:40:03.014Z,100847.03
2022-11-05T22:45:03.929Z,100847.78
2022-11-05T22:50:05.352Z,100842.94
2022-11-05T22:55:06.358Z,100847.78
2022-11-05T23:00:07.262Z,100849.63
2022-11-05T23:05:05.487Z,100853.34
2022-11-05T23:10:23.603Z,100854.31
2022-11-05T23:15:44.872Z,100856.41
2022-11-05T23:21:04.444Z,100854.78
2022-11-05T23:26:24.442Z,100858.25
2022-11-05T23:31:46.397Z,100862.81
2022-11-05T23:37:06.923Z,100864.00
2022-11-05T23:42:24.862Z,100859.56
2022-11-05T23:47:45.734Z,100858.88
2022-11-05T23:52:43.248Z,100864.16
2022-11-05T23:57:42.083Z,100864.41
